Ongar, United Kingdom
Current Conditions -  °F | °C
As of 5:50 PM on Sunday 21 Dec 2014 (Local Time) from EGSS Reporting Station
Broken Clouds Broken Clouds  
Wind Chill: 42°   Ceiling: 1500
Heat Index: 48°   Visibility: 6mi
Dew Point: 45°   Wind: 18mph
Humidity: 87%   Direction: 230°SW
Pressure: 30.15"   Gusts: NA
Location:  51.71°N, 0.24°E
Report Text: EGSS 211750Z 23016KT 9999 BKN015 09/07 Q1021
Loading
Personal Weather Stations






























Interactive Weather Map New forecast layout! Learn more

10-Day Weather Forecast

Advertisements
Track Severe Weather on mobile